createdAt,value
2023-01-29T05:02:56.780Z,86.67
2023-01-29T05:07:11.994Z,86.84
2023-01-29T05:11:25.117Z,87.02
2023-01-29T05:15:45.276Z,87.07
2023-01-29T05:19:57.167Z,87.13
2023-01-29T05:24:18.971Z,87.48
2023-01-29T05:28:30.675Z,87.74
2023-01-29T05:32:42.112Z,88.13
2023-01-29T05:36:53.613Z,88.43
2023-01-29T05:41:05.400Z,88.18
2023-01-29T05:45:18.605Z,88.36
2023-01-29T05:49:30.121Z,88.66
2023-01-29T05:53:41.600Z,89.25
2023-01-29T05:57:53.057Z,88.97
2023-01-29T06:02:04.586Z,89.47
2023-01-29T06:06:16.951Z,89.04
2023-01-29T06:10:28.423Z,89.20
2023-01-29T06:14:39.856Z,89.12
2023-01-29T06:18:51.285Z,89.76
2023-01-29T06:23:02.807Z,89.47
2023-01-29T06:27:14.528Z,89.23
2023-01-29T06:31:38.488Z,89.42
2023-01-29T06:35:56.006Z,89.53
2023-01-29T06:40:08.302Z,90.50
2023-01-29T06:44:19.858Z,90.27
2023-01-29T06:48:31.405Z,90.05
2023-01-29T06:52:42.847Z,90.21
2023-01-29T06:56:54.346Z,90.33
2023-01-29T07:01:11.711Z,89.97
2023-01-29T07:05:25.310Z,89.56
2023-01-29T07:09:36.761Z,89.64
2023-01-29T07:13:48.209Z,90.10
2023-01-29T07:18:01.583Z,89.67
2023-01-29T07:22:13.209Z,90.02
2023-01-29T07:26:24.756Z,90.04
2023-01-29T07:30:42.118Z,90.13
2023-01-29T07:34:53.768Z,89.96
2023-01-29T07:39:05.353Z,98.92
2023-01-29T07:43:17.055Z,91.02
2023-01-29T07:47:28.517Z,89.38
2023-01-29T07:51:40.093Z,88.91
2023-01-29T07:55:51.657Z,89.72
2023-01-29T08:00:03.446Z,90.41
2023-01-29T08:04:23.750Z,90.10
2023-01-29T08:08:35.271Z,90.79
2023-01-29T08:12:46.888Z,90.81
2023-01-29T08:16:58.398Z,90.00
2023-01-29T08:21:10.343Z,90.02
2023-01-29T08:25:23.177Z,90.69
2023-01-29T08:29:35.184Z,90.75
2023-01-29T08:33:47.146Z,90.19
2023-01-29T08:38:01.303Z,89.89
2023-01-29T08:42:12.853Z,90.79
2023-01-29T08:46:24.409Z,91.08
2023-01-29T08:50:36.844Z,90.26
2023-01-29T08:54:48.418Z,89.50
2023-01-29T08:58:59.976Z,88.81
2023-01-29T09:03:11.460Z,88.93
2023-01-29T09:07:22.975Z,88.90
2023-01-29T09:11:34.463Z,88.54
2023-01-29T09:15:46.532Z,88.53
2023-01-29T09:19:58.685Z,87.81
2023-01-29T09:24:10.786Z,86.62
2023-01-29T09:28:22.320Z,85.66
2023-01-29T09:32:52.758Z,83.28
2023-01-29T09:37:05.017Z,81.54
2023-01-29T09:41:56.363Z,80.70
2023-01-29T09:46:18.042Z,79.37
2023-01-29T09:50:40.957Z,78.56
2023-01-29T09:55:10.999Z,74.78
2023-01-29T09:59:25.062Z,74.49
2023-01-29T10:03:51.753Z,74.17
2023-01-29T10:08:20.235Z,74.69
2023-01-29T10:12:52.158Z,74.08
2023-01-29T10:17:35.584Z,74.86
2023-01-29T10:22:00.709Z,74.96
2023-01-29T10:26:13.464Z,74.24
2023-01-29T10:30:40.277Z,74.24
2023-01-29T10:35:02.946Z,73.92
2023-01-29T10:39:26.012Z,73.62
2023-01-29T10:44:05.430Z,74.53
2023-01-29T10:48:35.345Z,73.76
2023-01-29T10:53:27.423Z,73.42
2023-01-29T10:58:02.742Z,73.04
2023-01-29T11:02:18.031Z,74.24
2023-01-29T11:06:32.504Z,73.61
2023-01-29T11:10:55.860Z,74.07
2023-01-29T11:15:28.359Z,74.42
2023-01-29T11:19:45.970Z,72.68
2023-01-29T11:24:17.537Z,72.48
2023-01-29T11:28:40.812Z,71.27
2023-01-29T11:33:19.472Z,71.90
2023-01-29T11:37:40.263Z,71.83
2023-01-29T11:42:00.644Z,72.46
2023-01-29T11:46:15.486Z,71.14
2023-01-29T11:50:33.464Z,71.17
2023-01-29T11:54:58.758Z,71.25
2023-01-29T11:59:25.931Z,69.31
2023-01-29T12:03:43.749Z,69.55
2023-01-29T12:07:59.895Z,67.86
2023-01-29T12:12:28.640Z,68.63
2023-01-29T12:16:48.747Z,67.79
2023-01-29T12:21:26.889Z,66.96
2023-01-29T12:26:05.017Z,68.20
2023-01-29T12:30:25.768Z,67.43
2023-01-29T12:34:48.338Z,68.12
2023-01-29T12:39:00.004Z,66.76
2023-01-29T12:43:21.112Z,66.91
2023-01-29T12:47:43.784Z,67.76
2023-01-29T12:52:07.459Z,68.18
2023-01-29T12:56:39.579Z,67.81
2023-01-29T13:00:56.693Z,68.41
2023-01-29T13:05:30.991Z,68.63
2023-01-29T13:09:50.656Z,68.87
2023-01-29T13:14:13.630Z,68.85
2023-01-29T13:18:47.821Z,69.14
2023-01-29T13:23:12.801Z,69.53
2023-01-29T13:27:27.724Z,69.59
2023-01-29T13:31:41.105Z,69.39
2023-01-29T13:35:59.372Z,70.24
2023-01-29T13:40:25.660Z,69.76
2023-01-29T13:44:39.869Z,69.70
2023-01-29T13:48:54.582Z,69.57
2023-01-29T13:53:08.782Z,69.80
2023-01-29T13:57:33.952Z,69.88
2023-01-29T14:01:48.520Z,69.93
2023-01-29T14:06:01.043Z,69.71
2023-01-29T14:10:22.874Z,70.01
2023-01-29T14:15:05.634Z,69.15
2023-01-29T14:19:19.121Z,69.38
2023-01-29T14:23:36.608Z,69.53
2023-01-29T14:27:49.188Z,70.23
2023-01-29T14:32:06.655Z,70.87
2023-01-29T14:36:18.267Z,70.09
2023-01-29T14:40:31.021Z,70.04
2023-01-29T14:44:45.645Z,70.15
2023-01-29T14:48:57.155Z,69.96
2023-01-29T14:53:24.202Z,70.03
2023-01-29T14:57:36.727Z,69.66
2023-01-29T15:01:54.690Z,70.44
2023-01-29T15:06:09.772Z,71.05
2023-01-29T15:10:48.043Z,71.92
2023-01-29T15:15:06.146Z,72.13
2023-01-29T15:19:29.433Z,71.56
2023-01-29T15:23:41.285Z,72.33
2023-01-29T15:27:56.648Z,71.91
2023-01-29T15:32:31.168Z,72.90
2023-01-29T15:36:42.747Z,72.94
2023-01-29T15:41:00.174Z,72.63
2023-01-29T15:45:22.787Z,72.69
2023-01-29T15:49:39.391Z,73.61
2023-01-29T15:53:54.740Z,74.61
2023-01-29T15:58:13.541Z,74.65
2023-01-29T16:02:45.350Z,74.11
2023-01-29T16:06:58.817Z,74.42
2023-01-29T16:11:10.669Z,75.16
2023-01-29T16:15:32.887Z,75.70
2023-01-29T16:19:44.342Z,76.04
2023-01-29T16:23:59.119Z,76.76
2023-01-29T16:28:11.111Z,77.50
2023-01-29T16:32:22.824Z,77.73
2023-01-29T16:36:34.828Z,78.42
2023-01-29T16:41:07.030Z,78.49
2023-01-29T16:45:30.612Z,79.30
2023-01-29T16:49:49.630Z,80.07
2023-01-29T16:54:13.501Z,80.14
2023-01-29T16:58:28.084Z,80.87
2023-01-29T17:02:39.854Z,80.60
2023-01-29T17:06:57.655Z,81.01
2023-01-29T17:11:11.549Z,81.42
2023-01-29T17:15:44.763Z,82.02
2023-01-29T17:19:57.621Z,82.15
2023-01-29T17:24:09.116Z,81.30
2023-01-29T17:28:20.574Z,81.61
2023-01-29T17:32:42.242Z,81.93
2023-01-29T17:36:57.209Z,82.14
2023-01-29T17:41:15.702Z,81.98
2023-01-29T17:45:27.526Z,82.32
2023-01-29T17:49:39.059Z,82.79
2023-01-29T17:53:50.511Z,82.77
2023-01-29T17:58:01.939Z,83.09
2023-01-29T18:02:28.831Z,83.34
2023-01-29T18:06:42.488Z,83.40
2023-01-29T18:10:53.946Z,83.28
2023-01-29T18:15:05.823Z,84.12
2023-01-29T18:19:23.180Z,84.44
2023-01-29T18:23:34.676Z,84.01
2023-01-29T18:27:46.231Z,84.20
2023-01-29T18:31:57.968Z,84.50
2023-01-29T18:36:09.527Z,84.33
2023-01-29T18:40:20.979Z,84.19
2023-01-29T18:44:32.516Z,84.55
2023-01-29T18:48:44.115Z,84.85
2023-01-29T18:52:55.590Z,85.10
2023-01-29T18:57:14.647Z,84.50
2023-01-29T19:01:27.294Z,84.57
2023-01-29T19:05:38.805Z,85.31
2023-01-29T19:09:50.422Z,85.00
2023-01-29T19:14:01.843Z,85.16
2023-01-29T19:18:14.680Z,85.56
2023-01-29T19:22:26.335Z,85.40
2023-01-29T19:26:37.838Z,84.89
2023-01-29T19:30:49.392Z,85.69
2023-01-29T19:35:00.894Z,85.59
2023-01-29T19:39:12.549Z,86.12
2023-01-29T19:43:24.068Z,86.46
2023-01-29T19:47:41.044Z,86.16
2023-01-29T19:51:52.745Z,86.13
2023-01-29T19:56:11.053Z,86.12
2023-01-29T20:00:22.532Z,86.16
2023-01-29T20:04:34.202Z,85.56
2023-01-29T20:08:46.596Z,86.19
2023-01-29T20:12:58.035Z,85.99
2023-01-29T20:17:09.484Z,86.29
2023-01-29T20:21:21.992Z,87.09
2023-01-29T20:25:35.536Z,86.98
2023-01-29T20:29:47.017Z,87.24
2023-01-29T20:33:58.458Z,86.96
2023-01-29T20:38:09.893Z,87.53
2023-01-29T20:42:21.365Z,87.39
2023-01-29T20:46:35.076Z,87.79
2023-01-29T20:50:46.539Z,87.76
2023-01-29T20:54:57.983Z,87.96
2023-01-29T20:59:09.499Z,87.52
2023-01-29T21:03:21.114Z,87.88
2023-01-29T21:07:32.898Z,87.60
2023-01-29T21:11:47.258Z,87.73
2023-01-29T21:15:59.095Z,88.21
2023-01-29T21:20:11.127Z,88.17
2023-01-29T21:24:22.613Z,87.74
2023-01-29T21:28:34.541Z,88.44
2023-01-29T21:32:46.178Z,88.14
2023-01-29T21:36:57.738Z,88.49
2023-01-29T21:41:09.639Z,88.43
2023-01-29T21:45:21.333Z,88.41
2023-01-29T21:49:32.791Z,88.28
2023-01-29T21:53:44.254Z,87.99
2023-01-29T21:57:55.825Z,87.88
2023-01-29T22:02:13.812Z,88.66
2023-01-29T22:06:25.510Z,87.85
2023-01-29T22:10:37.587Z,88.18
2023-01-29T22:14:49.508Z,88.59
2023-01-29T22:19:01.019Z,88.96
2023-01-29T22:23:12.722Z,88.44
2023-01-29T22:27:25.285Z,88.00
